Big Sur, CA

5:14 PM PDT on July 24, 2016 (GMT -0700)
Bixby Canyon | | Change Station

Elev 161 ft 36.37 °N, 121.89 °W | Updated 11 minutes ago

Haze
Haze
63.0 °F
Feels Like 63.0 °F
N
2.2
Wind Variable Wind from NE

Today
High -- | Low -- °F
--% Chance of Precip.
Yesterday
High -- | Low -- °F
Precip. -- in
Pressure 29.98 in
Visibility 5.0 miles
Clouds Scattered Clouds 700 ft
Dew Point 54 °F
Humidity 72%
Rainfall 0.02 in
Snow Depth Not available.
6:07 AM 8:17 PM
Waning Gibbous, 72% visible
METAR KMRY 242354Z 26008KT 5SM HZ SCT007 16/12 A2994 RMK AO2 SLP150 T01610117 10183 20144 53001
Pressure 29.98 in
Visibility 5.0 miles
Clouds Scattered Clouds 700 ft
Dew Point 54 °F
Humidity 72%
Rainfall 0.02 in
Snow Depth Not available.
6:07 AM 8:17 PM
Waning Gibbous, 72% visible
METAR KMRY 242354Z 26008KT 5SM HZ SCT007 16/12 A2994 RMK AO2 SLP150 T01610117 10183 20144 53001

10-Day Weather Forecast

Almanac

Astronomy

Jul. 24, 2016 Rise Set
Actual Time
Civil Twilight
Nautical Twilight
Astronomical Twilight
Moon
Length of Visible Light
Length of Day
Tomorrow will be .
, % of the Moon is Illuminated

Today's Extremes

State Highs State Lows

Community

WunderPhotos

Upload Photos

1,927,211 photos uploaded!

WunderBlog® & News

Nearby

Air Quality

  Air Quality AQ Index Pollutant
Not available.

Snow Depth

Station Depth Elevation

Earthquake Activity

City Distance Mag. Time & Date
Minimum magnitude displayed is 2.5.

Coastal Water Temperatures

Place Temperature

Stations

Nearby Weather Stations

Station Location Temp. Windchill Dew Point Humidity Wind Precip. Elev Updated Type
                   

Watches & Warnings

There are currently no watches in effect.